My Meet Scores
Tanjae Lugo, St. Charles Gymnastics Academy - MyMeetScores.com
Top100 | Top Teams | Upcoming Meets | Completed Meets | Latest | Add Scores | Help| Bookmark and Share

Tanjae Lugo, St. Charles Gymnastics Academy
Personal Bests
LevelVault BarsBeamFloorAA
49.8009.700 9.6009.85038.600
59.7259.800 9.6759.90038.875
69.7009.750 9.8009.82538.550
89.2759.450 9.3259.52537.125
99.3759.325 9.4759.60037.300
109.5009.325 9.4759.50036.475
Scores on America's Top 100as of 11.23.2017
Year Level Vault Bars Beam Floor AA
2010 49.85038.600
2011 59.7259.8009.9009.82538.875
2012 69.750, 9.700, 9.625, 9.6009.800, 9.7759.800, 9.725, 9.72538.550, 38.450, 38.400, 38.375
Meet Scores
Date Meet Team Session Level Division Vault Bars Beam Floor AA
2017-03-10 Lucky Invitational St. Charles Gymnastics Academy A02 10 Sr 9.450 1 7.150 5 9.475 2T 9.125 3 35.200 4
2017-02-24 Kinetic Classic St. Charles Gymnastics Academy 3 10 All Ages 9.250 3 8.925 4 8.675 8 9.500 4T 36.350 3
2017-02-10 IGI Chicago Style Gymnastics Meet St. Charles Gymnastics Academy 313M 10 SrA 9.225 7 6.450 12 8.750 9 8.750 8 33.175 10
2016-12-02 Ultimate Wish Classic St. Charles Gymnastics Academy 1 10 All 8.650 4 8.100 3 9.300 2 9.175 1 35.225 2
2016-04-08 2016 Region 5 Levels 9-10 Championships St. Charles Gymnastics Academy 10 Junior E 9.400 6 8.450 16 8.750 14 9.425 7 36.025 14
2016-03-18 2016 Illinois Level 8, 9, 10 State Championships St. Charles Gymnastics Academy 05 10 10 Jr C 9.475 2 9.075 8 9.225 5 8.650 8 36.425 4
2016-02-12 IGI Chicago Style Gymnastics Meet St. Charles Gymnastics Academy 322 10 Jr 9.475 2 8.550 10 9.025 3 9.425 2 36.475 3
2016-01-22 King Arthur Invitational St. Charles Gymnastics Academy S6 10 Jr 9.275 2 9.100 2 8.625 4 8.625 5 35.625 3
2016-01-08 St Jude Benefit Meet St. Charles Gymnastics Academy 5B 10 Child 9.325 6 7.050 16 9.000 10 9.375 1 34.750 9
2015-12-17 2015 Hawaiian Pineapple Classic St. Charles Gymnastics Academy 4B 10 Ages 15-16 9.325 1 9.325 1 8.225 3 9.250 1 36.125 1
2015-12-04 2015 Ultimate Wish Classic St. Charles Gymnastics Academy 4 10 All 9.500 1 8.850 3 8.475 4 9.125 2 35.950 1
2015-04-17 2015 Region 5 Level 9, 10 Championships St. Charles Gymnastics Academy 01 10 Junior B 8.700 30 7.850 29T 7.650 30 9.500 7 33.700 27
2015-03-27 2015 Illinois Level 8,9,10 State Championships St. Charles Gymnastics Academy 1 10 JrB 9.025 12 8.600 9 9.250 7 9.025 11 35.900 10
2015-02-20 Midwest Open 2015 St. Charles Gymnastics Academy 4B 10 Jr.A 8.875 6 8.400 7 8.575 7 9.450 2 35.300 7
2014-04-30 2014 Level 9 Eastern Championships St. Charles Gymnastics Academy 3 9 Jr5 8.925 23 9.275 6T 9.400 1T 9.225 16 36.825 12
2014-04-11 2014 Region 5 Level 9, 10 Regionals St. Charles Gymnastics Academy 9 Level 9: Junior 5 9.100 14T 9.175 3T 9.475 3T 9.300 6T 37.050 5
2014-03-21 2014 Illinois Level 8, 9, 10 State Championships St. Charles Gymnastics Academy 9 Jr.C 9.150 12 9.250 5 9.300 6 9.600 1 37.300 3
2014-01-31 Circle Of Stars St. Charles Gymnastics Academy 5 9 13 9.375 3 9.325 1 9.150 2 9.225 2 37.075 1
2013-12-19 2013 Hawaiian Pineapple Classic St. Charles Gymnastics Academy B4 9 10-13 0.000 9T 7.950 6 0.000 10 0.000 9T 7.950 10
2013-12-06 Ultimate Wish Classic St. Charles Gymnastics Academy A 9 Junior4 9.250 1 8.325 9 8.950 3 8.650 6 35.175 5
2013-04-19 2013 Region 5 Level 8 Regional Championships Midwest Elite Gymnastics Academy 04A, 04B 8 Junior D 9.275 15T 9.450 19T 8.875 37T 9.525 2T 37.125 11
2013-03-22 2013 Illinois Level 8, 9, 10 State Championships Midwest Elite Gymnastics Academy All 8 Jr.D 9.200 10 8.850 17 8.550 23 9.500 4 36.100 13
2013-02-08 IGI Chicago Style Gymnastics Meet Midwest Elite Gymnastics Academy 523 8 12 & Under 9.150 2 9.425 2 9.325 3 9.125 6 37.025 2
2012-12-13 2012 Hawaiin Pineapple Classic Midwest Elite Gymnastics Academy B3 8 age 12 9.075 5 9.250 5T 9.100 3 9.400 2 36.825 2
2012-06-01 2012 USA Gymnastics Open Championships Illinois State Team 5A 6 Jr 9.550 1 9.750 1 9.450 1 9.800 1 38.550 1
2012-03-16 2012 Illinois Level 6, 7 State Championships Midwest Elite Gymnastics Academy 4 6 Sr.A 9.475 1 9.600 1 9.775 1 9.550 2 38.400 1
2012-02-10 IGI Chicago Style Gymnastics Midwest Elite Gymnastics Academy 532 6 11 Yr Olds 9.500 1 9.350 1 9.800 1 9.725 1 38.375 1
2012-01-27 Wisconsin Dell's Gymnastics Vaction Classic Midwest Elite Gymnastics Academy 5DE 6 11b yr old 9.350 1 9.700 1 9.175 2 9.550 1 37.775 1
2012-01-18 Bravo Classic Midwest Elite Gymnastics Academy 4B 6 10-11 9.700 1 9.625 1 9.400 2 9.725 1 38.450 1
2011-12-02 2011 Ultimate Wish Classic Midwest Elite Gymnastics Academy 7 6 Sr.A 9.300 3 9.525 1 9.300 2 9.825 1 37.950 1
2011-04-01 2011 Illinois Level 5 State Meet Midwest Elite Gymnastics Academy 7 5 Jr.D 9.725 1 9.800 1 9.450 4 9.900 1 38.875 1
2011-03-04 Flip'r Meet Midwest Elite Gymnastics Academy 3 5 10 9.250 1 9.650 1 9.450 1 9.250 1 37.600 1
2011-02-26 Midwest Open Midwest Elite Gymnastics Academy 3A 5 10 9.350 1 9.750 2 9.675 1 9.250 2 38.025 1
2011-02-11 IGI Chicago Style Gymnastics Meet Midwest Elite Gymnastics Academy 223 5 10 Yr Olds 9.300 4T 9.150 11T 9.000 18 9.325 1 36.775 6
2011-01-28 Wisconsin Dells Gymnastics Vacation Classic Midwest Elite Gymnastics Academy Multiple Sessions Combined 5 10B yr 9.200 1 8.950 2 9.425 1 9.500 1 37.075 1
2011-01-07 Twistars Invitational / Flip for the Red White & Blue Midwest Elite Gymnastics Academy 5A 5 10 9.200 1 8.650 2 9.000 1 9.225 1 36.075 1
2010-12-17 2010 Hawaiian Pineapple Classic Midwest Elite Gymnastics Academy 2B 5 10+ 9.400 1 9.550 1 9.500 2 9.300 3T 37.750 1
2010-12-03 Make a Wish Midwest Elite Gymnastics Academy 9 5 10-11 9.400 1 9.525 1 9.575 1T 9.300 1 37.800 1
2010-11-12 North Judges Cup Midwest Elite Gymnastics Academy 6B 5 10yrs 9.150 3 9.575 1 9.400 1 8.775 9 36.900 1
2010-03-26 2010 Illinois Level 4 State Championships Midwest Elite Gymnastics Academy 4 Jr.F 9.800 1 9.575 2 9.475 2 9.750 1 38.600 1
2010-03-05 Midwest Twisters Harley Davidson Invite Midwest Elite Gymnastics Academy B5 4 9 9.775 1 9.475 1 9.550 1 9.600 1 38.400 1
2010-02-27 Midwest Open Midwest Elite Gymnastics Academy 5B 4 9 9.575 1 9.675 1 9.400 1 9.850 1 38.500 1
2010-02-12 IGI Chicago Style Gymnastics Meet Midwest Elite Gymnastics Academy 233 4 8 9.725 1 9.700 1 9.600 1 9.325 2T 38.350 1
2010-02-05 St. Valentines Classic Midwest Elite Gymnastics Academy 2C 4 9 9.300 1 9.475 2 9.375 1 9.450 1 37.600 1
2010-01-29 Wisconsin Dells Gymnastics Vacation Classic Midwest Elite Gymnastics Academy 3C,3D 4 9 9.475 1 9.350 1 8.850 3T 9.650 1 37.325 1
2010-01-09 Meet Me in St Louis SLGC Open Invitational Midwest Elite Gymnastics Academy 1 4 9 9.300 4 9.325 1 8.700 3T 9.375 1 36.700 1
2009-12-04 Ultimate Wish Classic Midwest Elite Gymnastics Academy 5 4 Ch9-11 9.450 1 9.400 1 9.375 1 9.400 1 37.625 1
2009-11-07 Phyllis Matras Invitational Midwest Elite Gymnastics Academy 4 9 9.050 3 9.550 1 8.725 4 9.250 1 36.575 1

www.lazysuits.com